createdAt,value
2022-11-21T00:02:47.394Z,2.10
2022-11-21T00:07:50.179Z,3.67
2022-11-21T00:12:56.723Z,3.15
2022-11-21T00:17:59.407Z,1.17
2022-11-21T00:23:02.098Z,0.75
2022-11-21T00:28:05.616Z,0.55
2022-11-21T00:33:08.312Z,1.30
2022-11-21T00:38:10.912Z,2.72
2022-11-21T00:43:13.706Z,4.05
2022-11-21T00:48:16.474Z,2.63
2022-11-21T00:53:19.232Z,1.55
2022-11-21T00:58:21.909Z,0.45
2022-11-21T01:03:24.582Z,2.13
2022-11-21T01:08:27.234Z,2.60
2022-11-21T01:13:29.958Z,3.60
2022-11-21T01:18:32.658Z,3.20
2022-11-21T01:23:35.504Z,4.53
2022-11-21T01:28:38.189Z,1.67
2022-11-21T01:33:41.389Z,1.73
2022-11-21T01:38:46.792Z,2.67
2022-11-21T01:43:50.527Z,3.53
2022-11-21T01:49:05.699Z,4.43
2022-11-21T01:54:42.723Z,2.10
2022-11-21T02:00:00.581Z,1.50
2022-11-21T02:05:05.452Z,1.80
2022-11-21T02:10:09.747Z,2.63
2022-11-21T02:15:12.979Z,1.08
2022-11-21T02:20:20.468Z,3.20
2022-11-21T02:25:25.058Z,3.90
2022-11-21T02:30:29.300Z,3.80
2022-11-21T02:35:34.191Z,2.78
2022-11-21T02:40:40.887Z,4.00
2022-11-21T02:45:45.491Z,2.13
2022-11-21T02:50:48.711Z,2.95
2022-11-21T02:55:51.522Z,4.57
2022-11-21T03:00:55.552Z,3.83
2022-11-21T03:05:58.293Z,2.70
2022-11-21T03:11:00.953Z,4.88
2022-11-21T03:16:03.822Z,4.18
2022-11-21T03:21:06.566Z,7.00
2022-11-21T03:26:09.317Z,2.15
2022-11-21T03:31:12.000Z,2.13
2022-11-21T03:36:14.722Z,4.07
2022-11-21T03:41:32.430Z,4.47
2022-11-21T03:46:37.361Z,3.00
2022-11-21T03:51:40.474Z,2.03
2022-11-21T03:56:43.154Z,6.03
2022-11-21T04:01:45.983Z,5.00
2022-11-21T04:06:48.761Z,1.65
2022-11-21T04:11:51.463Z,3.67
2022-11-21T04:16:54.179Z,1.70
2022-11-21T04:21:56.776Z,3.15
2022-11-21T04:26:59.412Z,1.67
2022-11-21T04:32:02.371Z,1.70
2022-11-21T04:37:10.212Z,3.20
2022-11-21T04:42:14.245Z,2.92
2022-11-21T04:47:16.994Z,1.70
2022-11-21T04:52:19.847Z,2.05
2022-11-21T04:57:22.904Z,4.32
2022-11-21T05:02:25.647Z,4.57
2022-11-21T05:07:30.703Z,2.70
2022-11-21T05:12:52.137Z,3.08
2022-11-21T05:17:55.014Z,3.70
2022-11-21T05:22:57.696Z,2.85
2022-11-21T05:28:00.526Z,2.28
2022-11-21T05:33:03.392Z,1.50
2022-11-21T05:38:06.091Z,1.90
2022-11-21T05:43:30.094Z,1.85
2022-11-21T05:48:34.592Z,2.25
2022-11-21T05:53:37.456Z,2.20
2022-11-21T05:58:40.354Z,3.20
2022-11-21T06:03:43.722Z,2.30
2022-11-21T06:08:47.928Z,0.88
2022-11-21T06:13:50.624Z,1.77
2022-11-21T06:24:01.691Z,1.83
2022-11-21T06:29:04.701Z,2.30
2022-11-21T06:39:10.038Z,2.70
2022-11-21T06:44:14.137Z,2.45
2022-11-21T06:49:17.260Z,1.50
2022-11-21T06:54:19.935Z,2.13
2022-11-21T06:59:22.618Z,2.72
2022-11-21T07:04:25.652Z,1.45
2022-11-21T07:09:35.615Z,1.45
2022-11-21T07:14:38.292Z,1.98
2022-11-21T07:19:41.314Z,1.95
2022-11-21T07:24:44.215Z,2.97
2022-11-21T07:29:46.915Z,2.13
2022-11-21T07:34:49.656Z,1.98
2022-11-21T07:39:52.341Z,1.90
2022-11-21T07:44:54.994Z,1.73
2022-11-21T07:49:57.765Z,1.63
2022-11-21T07:55:02.741Z,2.00
2022-11-21T08:00:05.949Z,3.50
2022-11-21T08:05:09.218Z,2.30
2022-11-21T08:10:11.849Z,2.33
2022-11-21T08:15:15.564Z,1.80
2022-11-21T08:20:18.479Z,2.80
2022-11-21T08:25:21.237Z,1.17
2022-11-21T08:30:24.031Z,1.80
2022-11-21T08:35:27.483Z,1.33
2022-11-21T08:40:31.637Z,1.08
2022-11-21T08:45:35.685Z,2.05
2022-11-21T08:50:38.427Z,2.10
2022-11-21T08:55:41.200Z,1.88
2022-11-21T09:00:43.841Z,1.63
2022-11-21T09:05:46.549Z,1.98
2022-11-21T09:10:49.323Z,1.70
2022-11-21T09:16:10.700Z,1.77
2022-11-21T09:21:17.171Z,1.95
2022-11-21T09:26:19.892Z,2.88
2022-11-21T09:31:23.207Z,3.60
2022-11-21T09:36:25.805Z,4.82
2022-11-21T09:41:52.745Z,6.20
2022-11-21T09:47:05.473Z,5.63
2022-11-21T09:57:11.951Z,3.75
2022-11-21T10:02:17.104Z,2.72
2022-11-21T10:07:27.241Z,2.20
2022-11-21T10:12:51.572Z,1.45
2022-11-21T10:18:24.982Z,2.38
2022-11-21T10:23:27.638Z,2.75
2022-11-21T10:28:42.605Z,2.75
2022-11-21T10:33:45.763Z,3.65
2022-11-21T10:38:50.663Z,2.60
2022-11-21T10:44:22.787Z,3.17
2022-11-21T10:54:35.200Z,3.22
2022-11-21T10:59:37.958Z,2.90
2022-11-21T11:04:47.726Z,3.33
2022-11-21T11:09:54.148Z,4.53
2022-11-21T11:14:57.243Z,4.38
2022-11-21T11:20:02.220Z,5.45
2022-11-21T11:25:06.875Z,4.28
2022-11-21T11:30:16.235Z,3.20
2022-11-21T11:35:23.655Z,3.60
2022-11-21T11:40:33.727Z,3.75
2022-11-21T11:46:24.189Z,4.55
2022-11-21T11:51:39.969Z,4.70
2022-11-21T11:56:43.427Z,4.38
2022-11-21T12:01:53.135Z,3.88
2022-11-21T12:12:43.992Z,3.15
2022-11-21T12:18:06.583Z,3.30
2022-11-21T12:23:10.908Z,4.65
2022-11-21T12:28:49.555Z,5.18
2022-11-21T12:34:30.817Z,2.97
2022-11-21T12:39:56.752Z,4.57
2022-11-21T12:45:10.820Z,3.50
2022-11-21T12:50:47.215Z,5.22
2022-11-21T12:55:53.773Z,4.60
2022-11-21T13:01:22.151Z,4.63
2022-11-21T13:06:34.646Z,4.63
2022-11-21T13:11:58.995Z,5.30
2022-11-21T13:17:07.828Z,5.05
2022-11-21T13:22:38.361Z,5.63
2022-11-21T13:27:45.291Z,6.25
2022-11-21T13:32:53.080Z,5.07
2022-11-21T13:38:03.243Z,6.00
2022-11-21T13:43:32.528Z,5.22
2022-11-21T13:48:53.824Z,6.53
2022-11-21T13:54:37.677Z,5.25
2022-11-21T13:59:57.732Z,4.10
2022-11-21T14:05:15.733Z,6.03
2022-11-21T14:10:36.434Z,6.88
2022-11-21T14:15:49.497Z,5.35
2022-11-21T14:20:58.490Z,7.90
2022-11-21T14:26:04.821Z,6.15
2022-11-21T14:31:09.817Z,5.55
2022-11-21T14:36:26.459Z,4.47
2022-11-21T14:41:30.938Z,4.68
2022-11-21T14:46:39.786Z,6.13
2022-11-21T14:52:03.644Z,5.80
2022-11-21T14:57:09.608Z,6.60
2022-11-21T15:02:18.039Z,5.80
2022-11-21T15:12:48.374Z,8.95
2022-11-21T15:18:26.529Z,7.32
2022-11-21T15:23:35.711Z,7.13
2022-11-21T15:28:38.503Z,7.30
2022-11-21T15:34:34.197Z,8.40
2022-11-21T15:39:36.558Z,7.65
2022-11-21T15:45:00.703Z,8.50
2022-11-21T15:50:04.052Z,9.32
2022-11-21T15:55:13.115Z,6.47
2022-11-21T15:57:14.775Z,7.00
2022-11-21T16:00:17.762Z,9.55
2022-11-21T16:05:20.571Z,6.15
2022-11-21T16:10:27.763Z,8.27
2022-11-21T16:15:31.047Z,6.97
2022-11-21T16:20:33.704Z,7.30
2022-11-21T16:25:36.368Z,8.27
2022-11-21T16:30:39.413Z,7.07
2022-11-21T16:35:42.120Z,8.20
2022-11-21T16:40:57.181Z,6.70
2022-11-21T16:46:07.837Z,7.03
2022-11-21T16:51:13.996Z,6.72
2022-11-21T16:56:17.178Z,7.47
2022-11-21T17:01:22.691Z,5.80
2022-11-21T17:06:27.857Z,7.82
2022-11-21T17:11:31.714Z,9.88
2022-11-21T17:16:34.965Z,8.63
2022-11-21T17:21:37.703Z,5.38
2022-11-21T17:26:40.497Z,9.67
2022-11-21T17:31:43.305Z,8.25
2022-11-21T17:36:46.007Z,7.78
2022-11-21T17:41:48.895Z,6.05
2022-11-21T17:46:51.700Z,8.60
2022-11-21T17:51:56.731Z,9.77
2022-11-21T17:57:00.495Z,5.45
2022-11-21T18:02:03.322Z,6.93
2022-11-21T18:07:09.627Z,9.65
2022-11-21T18:12:12.360Z,8.38
2022-11-21T18:17:15.230Z,5.85
2022-11-21T18:22:17.808Z,9.80
2022-11-21T18:27:20.637Z,6.72
2022-11-21T18:32:23.379Z,4.50
2022-11-21T18:37:26.048Z,4.50
2022-11-21T18:42:28.750Z,6.00
2022-11-21T18:47:31.392Z,8.33
2022-11-21T18:52:35.431Z,8.47
2022-11-21T18:57:38.137Z,9.60
2022-11-21T19:02:40.791Z,5.63
2022-11-21T19:07:43.577Z,9.83
2022-11-21T19:12:46.435Z,8.50
2022-11-21T19:17:49.006Z,7.80
2022-11-21T19:22:52.919Z,8.27
2022-11-21T19:27:55.701Z,5.82
2022-11-21T19:33:01.456Z,8.80
2022-11-21T19:38:04.295Z,6.78
2022-11-21T19:43:06.992Z,8.32
2022-11-21T19:48:09.759Z,8.97
2022-11-21T19:53:12.439Z,9.97
2022-11-21T19:58:15.072Z,8.07
2022-11-21T20:03:18.207Z,10.33
2022-11-21T20:08:20.890Z,8.18
2022-11-21T20:13:23.645Z,8.60
2022-11-21T20:18:26.296Z,9.17
2022-11-21T20:23:28.943Z,7.33
2022-11-21T20:28:34.314Z,7.87
2022-11-21T20:33:38.779Z,10.25
2022-11-21T20:38:42.227Z,8.52
2022-11-21T20:44:26.752Z,8.50
2022-11-21T20:49:07.857Z,9.23
2022-11-21T20:54:10.666Z,7.93
2022-11-21T20:59:13.536Z,11.67
2022-11-21T21:04:16.211Z,7.80
2022-11-21T21:09:18.953Z,9.90
2022-11-21T21:14:22.651Z,8.73
2022-11-21T21:19:25.387Z,8.52
2022-11-21T21:24:28.210Z,9.43
2022-11-21T21:29:31.110Z,9.90
2022-11-21T21:34:34.194Z,8.80
2022-11-21T21:39:36.868Z,8.30
2022-11-21T21:44:39.917Z,10.33
2022-11-21T21:49:42.729Z,8.57
2022-11-21T21:54:45.609Z,8.17
2022-11-21T21:59:48.273Z,11.03
2022-11-21T22:04:52.231Z,10.30
2022-11-21T22:09:55.886Z,8.82
2022-11-21T22:14:58.822Z,7.97
2022-11-21T22:20:01.510Z,8.90
2022-11-21T22:25:06.167Z,9.05
2022-11-21T22:30:11.050Z,9.85
2022-11-21T22:35:13.857Z,9.65
2022-11-21T22:40:16.646Z,5.90
2022-11-21T22:45:19.672Z,8.17
2022-11-21T22:50:22.434Z,7.53
2022-11-21T22:55:25.131Z,9.48
2022-11-21T23:00:27.808Z,7.90
2022-11-21T23:05:30.525Z,11.02
2022-11-21T23:10:33.195Z,9.10
2022-11-21T23:15:36.077Z,12.35
2022-11-21T23:20:38.816Z,4.70
2022-11-21T23:25:41.754Z,4.63
2022-11-21T23:30:46.520Z,11.10
2022-11-21T23:35:49.400Z,9.68
2022-11-21T23:40:52.259Z,9.00
2022-11-21T23:45:55.291Z,8.75
2022-11-21T23:50:58.003Z,9.67
2022-11-21T23:56:00.702Z,8.35
